Time;durP1;ratioP1;P1;durP2;ratioP2;P2;SDS_P1;SDS_P2;PMS_P1;PMS_P2;Temp;Humidity;BMP_temperature;BMP_pressure;BME280_temperature;BME280_humidity;BME280_pressure;Samples;Min_cycle;Max_cycle;Signal;HPM_P1;HPM_P2
2021/06/25 00:01:41;;;;;;;19.13;13.05;;;18.90;78.70;;;;;;5053276;28;20111;-68
2021/06/25 00:04:06;;;;;;;15.00;13.07;;;18.80;79.00;;;;;;5053211;28;20036;-70
2021/06/25 00:06:32;;;;;;;15.65;12.25;;;18.80;78.80;;;;;;5053138;28;20052;-70
2021/06/25 00:09:00;;;;;;;19.73;12.70;;;18.80;79.20;;;;;;5035494;28;20024;-70
2021/06/25 00:11:25;;;;;;;14.52;12.48;;;18.80;79.10;;;;;;5035347;28;20036;-70
2021/06/25 00:13:51;;;;;;;15.13;12.63;;;18.80;79.30;;;;;;5053125;28;20029;-70
2021/06/25 00:16:17;;;;;;;17.48;12.73;;;18.80;79.40;;;;;;5052901;28;20101;-70
2021/06/25 00:18:45;;;;;;;20.17;13.75;;;18.80;79.30;;;;;;5053118;28;20040;-70
2021/06/25 00:21:10;;;;;;;18.95;13.88;;;18.80;79.30;;;;;;5053497;28;20021;-70
2021/06/25 00:23:36;;;;;;;16.85;13.43;;;18.80;79.30;;;;;;5052938;28;20427;-70
2021/06/25 00:26:02;;;;;;;17.17;11.68;;;18.80;79.20;;;;;;5052000;28;20021;-70
2021/06/25 00:28:28;;;;;;;20.38;13.80;;;18.80;79.20;;;;;;5034965;28;20025;-70
2021/06/25 00:30:55;;;;;;;18.30;14.18;;;18.90;79.00;;;;;;5052733;28;20033;-70
2021/06/25 00:33:21;;;;;;;22.73;13.82;;;18.80;79.00;;;;;;5053053;28;20027;-70
2021/06/25 00:35:47;;;;;;;18.05;13.85;;;18.90;79.10;;;;;;5052749;28;20029;-70
2021/06/25 00:38:14;;;;;;;17.92;14.32;;;18.90;79.20;;;;;;5052552;28;20039;-70
2021/06/25 00:40:39;;;;;;;18.75;14.25;;;18.80;78.90;;;;;;5053102;28;20051;-70
2021/06/25 00:43:05;;;;;;;17.98;14.15;;;18.80;79.50;;;;;;5034659;28;20029;-70
2021/06/25 00:45:34;;;;;;;20.77;14.23;;;18.80;79.40;;;;;;5034654;28;20021;-70
2021/06/25 00:48:00;;;;;;;18.15;14.63;;;18.70;79.70;;;;;;5052278;28;20104;-70
2021/06/25 00:50:28;;;;;;;20.10;15.25;;;18.60;79.90;;;;;;5052449;28;20104;-70
2021/06/25 00:52:59;;;;;;;19.58;13.98;;;18.60;80.10;;;;;;5052438;28;20376;-71
2021/06/25 00:55:27;;;;;;;17.75;14.27;;;18.60;80.30;;;;;;5052810;28;20025;-70
2021/06/25 00:57:54;;;;;;;14.52;13.02;;;18.80;79.80;;;;;;5052100;28;20033;-70
2021/06/25 01:00:20;;;;;;;16.45;13.02;;;18.80;79.70;;;;;;5052407;28;20483;-69
2021/06/25 01:02:46;;;;;;;19.15;14.57;;;18.70;79.70;;;;;;5052858;28;20116;-69
2021/06/25 01:05:14;;;;;;;19.77;14.00;;;18.70;79.80;;;;;;5034698;28;20112;-69
2021/06/25 01:07:40;;;;;;;19.13;14.13;;;18.70;79.90;;;;;;5052503;28;20476;-69
2021/06/25 01:10:08;;;;;;;18.75;14.32;;;18.80;80.00;;;;;;5052300;28;20048;-69
2021/06/25 01:12:34;;;;;;;17.48;13.68;;;18.70;80.00;;;;;;5052247;28;20379;-69
2021/06/25 01:15:00;;;;;;;18.20;13.13;;;18.70;80.00;;;;;;5052236;28;20032;-70
2021/06/25 01:17:31;;;;;;;20.77;13.50;;;18.70;80.20;;;;;;5051938;28;20079;-69
2021/06/25 01:19:58;;;;;;;17.98;13.07;;;18.70;80.40;;;;;;5052862;28;20052;-70
2021/06/25 01:22:34;;;;;;;18.73;13.77;;;18.80;80.20;;;;;;5052871;28;20025;-70
2021/06/25 01:25:25;;;;;;;14.52;13.07;;;18.70;80.20;;;;;;5034609;28;20068;-70
2021/06/25 01:27:57;;;;;;;19.70;14.88;;;18.80;80.10;;;;;;5044769;28;20033;-70
2021/06/25 01:30:26;;;;;;;18.33;15.20;;;18.80;80.00;;;;;;5052222;28;20550;-69
2021/06/25 01:32:53;;;;;;;19.38;14.68;;;18.80;79.90;;;;;;5051838;28;20025;-70
2021/06/25 01:35:19;;;;;;;17.27;15.30;;;18.70;80.00;;;;;;5051629;28;20513;-69
2021/06/25 01:37:45;;;;;;;17.90;14.20;;;18.80;80.10;;;;;;5051439;28;20053;-70
2021/06/25 01:40:13;;;;;;;19.90;15.20;;;18.70;80.10;;;;;;5051631;28;20447;-70
2021/06/25 01:42:40;;;;;;;19.70;15.00;;;18.70;80.20;;;;;;5051567;28;20029;-70
2021/06/25 01:45:19;;;;;;;17.38;14.30;;;18.70;80.10;;;;;;5051484;28;20040;-69
2021/06/25 01:47:47;;;;;;;16.63;14.68;;;18.80;80.00;;;;;;5051054;28;20025;-69
2021/06/25 01:50:16;;;;;;;19.10;15.50;;;18.70;80.10;;;;;;5033640;28;20113;-69
2021/06/25 01:52:43;;;;;;;22.58;17.33;;;18.70;80.30;;;;;;5033924;28;20029;-69
2021/06/25 01:55:10;;;;;;;19.42;15.73;;;18.70;80.10;;;;;;5030359;28;20025;-69
2021/06/25 01:57:35;;;;;;;18.02;14.93;;;18.60;80.40;;;;;;5031289;28;20057;-70
2021/06/25 02:00:01;;;;;;;21.17;15.93;;;18.70;80.50;;;;;;5031496;28;20372;-71
2021/06/25 02:02:26;;;;;;;20.63;14.55;;;18.60;80.70;;;;;;5030250;28;20052;-70
2021/06/25 02:04:52;;;;;;;22.80;16.45;;;18.60;81.00;;;;;;5013903;28;20026;-70
2021/06/25 02:07:17;;;;;;;21.50;16.30;;;18.60;80.80;;;;;;5031300;28;20487;-71
2021/06/25 02:09:43;;;;;;;19.65;16.38;;;18.60;80.60;;;;;;5013612;28;20033;-70
2021/06/25 02:12:09;;;;;;;23.35;17.27;;;18.70;80.30;;;;;;5013806;28;20020;-70
2021/06/25 02:14:34;;;;;;;18.10;16.17;;;18.60;80.60;;;;;;5031445;28;20025;-71
2021/06/25 02:17:00;;;;;;;23.70;18.13;;;18.50;80.80;;;;;;5013437;28;20032;-71
2021/06/25 02:19:25;;;;;;;20.23;16.08;;;18.50;80.90;;;;;;5031383;28;20025;-71
2021/06/25 02:21:51;;;;;;;20.27;16.50;;;18.50;81.10;;;;;;5031556;28;20022;-70
2021/06/25 02:24:16;;;;;;;23.33;18.10;;;18.50;81.20;;;;;;5031268;28;20053;-71
2021/06/25 02:26:42;;;;;;;21.48;16.02;;;18.50;81.10;;;;;;5031037;28;20502;-71
2021/06/25 02:29:08;;;;;;;22.00;17.70;;;18.50;81.20;;;;;;5031242;28;20102;-70
2021/06/25 02:31:33;;;;;;;26.55;17.02;;;18.30;81.60;;;;;;5013493;28;20502;-70
2021/06/25 02:33:59;;;;;;;22.40;17.10;;;18.30;81.90;;;;;;5031350;28;20033;-70
2021/06/25 02:36:25;;;;;;;22.50;17.80;;;18.20;81.80;;;;;;5013568;28;20064;-70
2021/06/25 02:38:50;;;;;;;21.98;16.30;;;18.10;82.30;;;;;;5031467;28;20041;-70
2021/06/25 02:41:20;;;;;;;20.48;18.02;;;18.20;82.40;;;;;;5030164;28;20120;-71
2021/06/25 02:43:50;;;;;;;22.70;18.30;;;18.00;82.70;;;;;;5031226;28;20110;-70
2021/06/25 02:46:16;;;;;;;26.67;19.63;;;18.00;82.80;;;;;;5031195;28;20446;-71
2021/06/25 02:48:42;;;;;;;22.65;18.85;;;18.00;83.00;;;;;;5033203;28;20068;-69
2021/06/25 02:51:07;;;;;;;19.80;17.65;;;18.00;83.20;;;;;;5017254;28;20056;-70
2021/06/25 02:53:33;;;;;;;23.73;18.98;;;18.00;83.80;;;;;;5034828;28;20026;-70
2021/06/25 02:55:59;;;;;;;22.65;20.23;;;18.00;83.70;;;;;;5053852;28;20398;-70
2021/06/25 02:58:25;;;;;;;26.63;23.60;;;18.10;84.20;;;;;;5054347;28;20035;-70
2021/06/25 03:00:53;;;;;;;29.10;24.45;;;18.10;86.70;;;;;;5054432;28;20043;-70
2021/06/25 03:03:22;;;;;;;30.67;27.15;;;18.00;88.10;;;;;;5054447;28;20028;-70
2021/06/25 03:05:52;;;;;;;33.90;27.75;;;17.90;89.00;;;;;;5054636;28;20029;-70
2021/06/25 03:08:18;;;;;;;29.85;26.60;;;17.80;89.30;;;;;;5036861;28;20017;-70
2021/06/25 03:10:49;;;;;;;27.02;24.13;;;17.60;89.00;;;;;;5054369;28;20039;-71
2021/06/25 03:13:16;;;;;;;29.03;24.33;;;17.50;89.50;;;;;;5054443;28;20025;-70
2021/06/25 03:15:42;;;;;;;321.42;234.18;;;17.30;90.00;;;;;;5036646;28;20036;-71
2021/06/25 03:18:10;;;;;;;47.03;36.38;;;17.30;90.60;;;;;;5054255;28;20494;-70
2021/06/25 03:20:36;;;;;;;296.27;163.73;;;17.40;90.80;;;;;;5054559;28;20040;-71
2021/06/25 03:23:01;;;;;;;28.27;23.13;;;17.40;91.00;;;;;;5054879;28;20028;-70
2021/06/25 03:25:27;;;;;;;32.53;26.20;;;17.40;90.80;;;;;;5036308;28;20029;-71
2021/06/25 03:27:53;;;;;;;157.15;78.65;;;17.40;91.00;;;;;;5053985;28;20017;-70
2021/06/25 03:30:19;;;;;;;369.58;263.35;;;17.40;90.80;;;;;;5054124;28;20032;-70
2021/06/25 03:32:44;;;;;;;115.40;65.38;;;17.40;90.50;;;;;;5036324;28;20018;-71
2021/06/25 03:35:10;;;;;;;14.65;11.57;;;17.30;90.30;;;;;;5054208;28;20139;-71
2021/06/25 03:37:38;;;;;;;14.93;11.60;;;17.30;90.30;;;;;;5035728;28;20033;-71
2021/06/25 03:40:12;;;;;;;13.40;10.77;;;17.20;90.00;;;;;;5053805;28;20033;-71
2021/06/25 03:42:39;;;;;;;13.65;10.77;;;17.20;90.10;;;;;;5054108;28;20032;-71
2021/06/25 03:45:06;;;;;;;11.82;10.35;;;17.20;90.50;;;;;;5053841;28;20064;-71
2021/06/25 03:47:32;;;;;;;13.52;12.05;;;17.10;91.10;;;;;;5037204;28;20048;-71
2021/06/25 03:49:58;;;;;;;13.63;12.05;;;17.10;91.10;;;;;;5015810;28;20475;-71
2021/06/25 03:52:23;;;;;;;33.10;18.60;;;17.20;91.70;;;;;;5033893;28;20025;-72
2021/06/25 03:54:49;;;;;;;17.70;13.13;;;17.20;91.60;;;;;;5021915;28;20436;-71
2021/06/25 03:57:15;;;;;;;14.30;11.70;;;17.10;91.50;;;;;;5033446;28;20029;-71
2021/06/25 03:59:42;;;;;;;15.68;12.57;;;17.00;91.30;;;;;;5030996;28;20039;-70
2021/06/25 04:02:11;;;;;;;17.02;12.07;;;16.90;91.80;;;;;;5033534;28;20399;-71
2021/06/25 04:04:37;;;;;;;14.55;11.85;;;16.90;92.50;;;;;;5033408;28;20021;-71
2021/06/25 04:07:04;;;;;;;15.50;12.32;;;16.90;92.30;;;;;;5033188;28;20558;-71
2021/06/25 04:09:30;;;;;;;15.20;11.80;;;16.80;92.40;;;;;;5033168;28;20051;-71
2021/06/25 04:11:56;;;;;;;15.00;10.60;;;16.80;92.60;;;;;;5033506;28;20017;-71
2021/06/25 04:14:21;;;;;;;14.18;10.55;;;16.70;92.80;;;;;;5033549;28;20515;-71
2021/06/25 04:16:50;;;;;;;21.77;13.68;;;16.90;93.20;;;;;;5032940;28;20053;-71
2021/06/25 04:19:15;;;;;;;21.33;14.30;;;16.90;93.40;;;;;;5033018;28;20040;-71
2021/06/25 04:21:41;;;;;;;16.73;12.70;;;17.00;93.50;;;;;;5033212;28;20026;-70
2021/06/25 04:24:09;;;;;;;19.70;13.05;;;16.90;93.30;;;;;;5031722;28;20029;-71
2021/06/25 04:26:36;;;;;;;20.80;13.18;;;16.80;93.20;;;;;;5031613;28;20024;-71
2021/06/25 04:29:07;;;;;;;32.67;16.23;;;16.80;93.50;;;;;;5033286;28;20052;-71
2021/06/25 04:31:33;;;;;;;40.03;17.60;;;16.80;93.60;;;;;;5032994;28;20087;-72
2021/06/25 04:33:59;;;;;;;34.65;17.58;;;16.80;93.80;;;;;;5032984;28;20029;-69
2021/06/25 04:36:25;;;;;;;30.05;15.90;;;16.80;93.80;;;;;;5032329;28;20333;-71
2021/06/25 04:38:55;;;;;;;23.98;15.52;;;16.70;93.90;;;;;;5032382;28;20502;-71
2021/06/25 04:41:20;;;;;;;46.20;17.42;;;16.80;94.00;;;;;;5032789;28;20022;-72
2021/06/25 04:43:46;;;;;;;39.85;17.45;;;16.80;94.00;;;;;;5032670;28;20510;-71
2021/06/25 04:46:12;;;;;;;68.63;21.23;;;16.50;93.60;;;;;;5032390;28;20032;-72
2021/06/25 04:48:41;;;;;;;33.58;23.20;;;16.40;94.10;;;;;;5032297;28;20099;-71
2021/06/25 04:51:07;;;;;;;47.30;26.45;;;16.40;94.40;;;;;;5032493;28;20026;-71
2021/06/25 04:53:33;;;;;;;77.22;34.63;;;16.40;94.70;;;;;;5032711;28;20454;-71
2021/06/25 04:55:58;;;;;;;54.15;31.42;;;16.50;94.80;;;;;;5047479;28;20029;-71
2021/06/25 04:58:27;;;;;;;47.10;29.05;;;16.50;94.90;;;;;;5051965;28;20360;-71
2021/06/25 05:00:53;;;;;;;95.50;37.38;;;16.60;95.00;;;;;;5052201;28;20598;-70
2021/06/25 05:03:18;;;;;;;90.97;36.20;;;16.60;95.10;;;;;;5052158;28;20033;-71
2021/06/25 05:05:45;;;;;;;88.07;31.80;;;16.60;95.10;;;;;;5033985;28;20032;-72
2021/06/25 05:08:12;;;;;;;61.10;28.38;;;16.70;95.10;;;;;;5051447;28;20478;-71
2021/06/25 05:10:38;;;;;;;52.38;27.45;;;16.70;95.10;;;;;;5039634;23;20046;-66
2021/06/25 05:13:04;;;;;;;43.10;25.70;;;16.70;95.20;;;;;;5012293;28;20030;-66
2021/06/25 05:15:30;;;;;;;50.25;27.38;;;16.80;95.20;;;;;;5011285;28;20109;-66
2021/06/25 05:17:56;;;;;;;39.15;24.05;;;16.80;95.20;;;;;;5011433;28;20456;-66
2021/06/25 05:20:21;;;;;;;59.00;28.45;;;16.80;95.20;;;;;;5012029;28;20030;-67
2021/06/25 05:22:47;;;;;;;97.80;31.30;;;16.90;95.30;;;;;;5012032;28;20096;-66
2021/06/25 05:25:16;;;;;;;53.97;28.60;;;16.90;95.30;;;;;;5011856;28;20113;-66
2021/06/25 05:27:41;;;;;;;54.88;27.42;;;17.00;95.30;;;;;;5011770;28;20113;-66
2021/06/25 05:30:08;;;;;;;45.17;25.45;;;16.90;95.30;;;;;;5011629;28;20068;-67
2021/06/25 05:32:34;;;;;;;67.88;32.03;;;17.00;95.30;;;;;;5011869;28;20029;-67
2021/06/25 05:35:01;;;;;;;65.15;29.80;;;17.00;95.40;;;;;;5012175;28;20515;-66
2021/06/25 05:37:26;;;;;;;54.55;27.17;;;17.00;95.30;;;;;;5011252;28;20059;-67
2021/06/25 05:39:54;;;;;;;44.83;26.10;;;17.00;95.30;;;;;;5011581;28;20030;-67
2021/06/25 05:42:19;;;;;;;46.08;27.42;;;17.00;95.30;;;;;;5010522;28;20395;-67
2021/06/25 05:44:45;;;;;;;56.63;28.40;;;17.00;95.30;;;;;;5011561;28;20022;-66
2021/06/25 05:47:10;;;;;;;40.90;25.42;;;16.90;95.30;;;;;;5010420;28;20026;-66
2021/06/25 05:49:36;;;;;;;60.53;31.52;;;17.00;95.30;;;;;;5010266;28;20452;-66
2021/06/25 05:52:02;;;;;;;57.53;30.85;;;17.00;95.40;;;;;;5011640;28;20022;-67
2021/06/25 05:54:27;;;;;;;51.63;28.83;;;17.10;95.40;;;;;;5011600;28;20034;-67
2021/06/25 05:56:54;;;;;;;56.67;31.88;;;17.10;95.40;;;;;;5011189;28;20033;-67
2021/06/25 05:59:19;;;;;;;45.65;27.23;;;17.20;95.40;;;;;;5011185;28;20476;-66
2021/06/25 06:01:45;;;;;;;42.70;26.67;;;17.00;95.30;;;;;;5011611;28;20025;-66
2021/06/25 06:04:11;;;;;;;41.00;26.27;;;17.00;95.20;;;;;;5011763;28;20434;-66
2021/06/25 06:06:36;;;;;;;26.17;20.75;;;17.10;95.30;;;;;;5007874;28;20026;-66
2021/06/25 06:09:03;;;;;;;28.98;20.08;;;17.10;95.30;;;;;;5010271;28;20034;-66
2021/06/25 06:11:29;;;;;;;38.30;22.05;;;17.00;95.20;;;;;;5010221;28;20076;-66
2021/06/25 06:13:54;;;;;;;34.03;23.02;;;17.10;95.20;;;;;;5010265;28;20057;-66
2021/06/25 06:16:20;;;;;;;28.83;21.50;;;16.90;95.00;;;;;;5011219;28;20803;-67
2021/06/25 06:18:47;;;;;;;44.35;26.08;;;17.00;95.10;;;;;;5011489;28;20476;-66
2021/06/25 06:21:14;;;;;;;66.30;34.13;;;17.10;95.10;;;;;;5011220;28;20030;-66
2021/06/25 06:32:18;;;;;;;44.00;25.23;;;17.40;95.10;;;;;;5015276;28;20554;-66
2021/06/25 06:34:44;;;;;;;55.55;30.63;;;17.50;95.00;;;;;;5015015;28;20108;-67
2021/06/25 06:37:16;;;;;;;32.38;24.67;;;17.40;94.90;;;;;;5014744;28;20026;-65
2021/06/25 06:39:42;;;;;;;38.00;26.10;;;17.40;94.90;;;;;;5014985;28;20026;-65
2021/06/25 06:42:10;;;;;;;35.53;26.25;;;17.50;94.90;;;;;;5014920;28;20105;-65
2021/06/25 06:44:36;;;;;;;43.00;29.05;;;17.60;94.80;;;;;;5014969;28;20104;-65
2021/06/25 06:47:04;;;;;;;33.60;27.38;;;17.60;94.70;;;;;;5013363;28;20114;-65
2021/06/25 06:49:29;;;;;;;39.05;30.00;;;17.60;94.60;;;;;;5014642;28;20022;-65
2021/06/25 06:51:55;;;;;;;30.50;25.35;;;17.50;94.50;;;;;;5014734;28;20152;-65
2021/06/25 06:54:20;;;;;;;47.88;32.95;;;17.50;94.60;;;;;;5014492;28;20025;-67
2021/06/25 06:56:46;;;;;;;44.00;30.27;;;17.60;94.40;;;;;;5014567;28;20402;-66
2021/06/25 06:59:12;;;;;;;40.40;30.60;;;17.60;94.50;;;;;;5014554;28;20030;-66
2021/06/25 07:01:39;;;;;;;39.53;30.48;;;17.60;94.40;;;;;;5014543;28;20022;-66
2021/06/25 07:04:06;;;;;;;35.42;27.55;;;17.60;94.20;;;;;;5014799;28;20026;-67
2021/06/25 07:06:31;;;;;;;47.42;32.83;;;17.70;94.30;;;;;;5014334;28;20026;-66
2021/06/25 07:08:57;;;;;;;35.90;27.90;;;17.80;94.40;;;;;;5014553;28;20372;-66
2021/06/25 07:11:23;;;;;;;40.42;28.25;;;17.70;93.90;;;;;;5014282;28;20141;-66
2021/06/25 07:13:53;;;;;;;27.15;24.13;;;17.80;94.20;;;;;;5014463;28;20014;-66
2021/06/25 07:16:19;;;;;;;39.17;30.30;;;17.70;93.80;;;;;;5013713;28;20080;-65
2021/06/25 07:18:46;;;;;;;27.60;24.42;;;17.90;94.10;;;;;;5009889;28;20431;-66
2021/06/25 07:21:12;;;;;;;32.88;27.48;;;18.00;94.00;;;;;;4994753;28;20034;-65
2021/06/25 07:23:37;;;;;;;26.70;22.98;;;17.90;93.40;;;;;;4994568;28;20023;-65
2021/06/25 07:26:03;;;;;;;36.50;28.17;;;17.80;93.10;;;;;;4993211;28;20109;-64
2021/06/25 07:28:28;;;;;;;37.13;29.00;;;17.80;93.00;;;;;;4992667;28;20031;-65
2021/06/25 07:30:55;;;;;;;30.02;25.63;;;17.90;93.40;;;;;;4992574;28;20034;-64
2021/06/25 07:33:20;;;;;;;30.38;25.92;;;18.00;93.70;;;;;;4992412;28;20031;-66
2021/06/25 07:35:46;;;;;;;34.08;28.25;;;18.00;93.30;;;;;;5004039;28;20029;-72
2021/06/25 07:38:11;;;;;;;76.53;51.50;;;18.00;93.50;;;;;;5009839;28;20037;-70
2021/06/25 07:40:37;;;;;;;55.00;38.35;;;17.90;92.90;;;;;;5017252;28;20018;-69
2021/06/25 07:43:05;;;;;;;47.15;36.03;;;17.70;92.60;;;;;;5023734;28;20040;-69
2021/06/25 07:45:31;;;;;;;41.67;31.02;;;17.80;93.00;;;;;;5027345;28;20108;-65
2021/06/25 07:47:56;;;;;;;106.43;76.22;;;17.70;92.90;;;;;;5016632;28;20113;-71
2021/06/25 07:50:23;;;;;;;74.18;48.85;;;17.70;93.20;;;;;;5029212;28;20528;-71
2021/06/25 07:52:49;;;;;;;74.30;47.53;;;17.70;93.10;;;;;;5021779;28;20036;-70
2021/06/25 07:55:16;;;;;;;53.42;39.05;;;17.70;93.30;;;;;;5022127;28;20030;-67
2021/06/25 07:57:42;;;;;;;64.90;44.42;;;17.70;93.70;;;;;;5028413;28;20068;-69
2021/06/25 08:00:09;;;;;;;45.55;35.40;;;17.90;93.90;;;;;;5016677;28;20550;-68
2021/06/25 08:02:35;;;;;;;39.53;33.30;;;17.90;93.20;;;;;;5027162;28;20033;-67
2021/06/25 08:05:00;;;;;;;37.25;31.48;;;17.90;93.20;;;;;;5022775;28;20033;-69
2021/06/25 08:07:26;;;;;;;81.65;55.85;;;17.90;93.30;;;;;;5019730;28;20088;-71
2021/06/25 08:09:54;;;;;;;52.22;35.33;;;17.90;93.40;;;;;;5015382;28;20057;-70
2021/06/25 08:12:19;;;;;;;39.13;31.77;;;17.90;93.40;;;;;;5029301;28;20014;-70
2021/06/25 08:14:45;;;;;;;54.30;39.10;;;17.90;93.50;;;;;;5019170;28;20033;-69
2021/06/25 08:17:10;;;;;;;48.97;36.40;;;18.00;93.30;;;;;;5021795;28;20443;-71
2021/06/25 08:19:36;;;;;;;50.60;39.00;;;17.80;92.70;;;;;;5027426;28;20025;-68
2021/06/25 08:22:02;;;;;;;56.17;41.08;;;17.90;93.20;;;;;;5016686;28;20025;-68
2021/06/25 08:24:29;;;;;;;54.50;40.63;;;18.00;93.20;;;;;;5027797;28;20172;-74
2021/06/25 08:26:55;;;;;;;42.80;34.70;;;18.00;93.50;;;;;;5021476;28;20018;-72
2021/06/25 08:29:21;;;;;;;46.08;36.03;;;18.10;93.40;;;;;;5020511;28;20018;-72
2021/06/25 08:31:48;;;;;;;46.33;36.72;;;18.10;93.30;;;;;;5027025;28;20025;-71
2021/06/25 08:34:13;;;;;;;52.67;39.40;;;18.10;93.30;;;;;;5016611;28;20026;-71
2021/06/25 08:36:39;;;;;;;53.38;40.67;;;18.20;93.50;;;;;;5025715;28;20036;-71
2021/06/25 08:39:05;;;;;;;42.40;35.42;;;18.20;93.70;;;;;;5022459;28;20025;-72
2021/06/25 08:41:33;;;;;;;58.53;43.30;;;18.10;92.80;;;;;;5018411;28;20060;-72
2021/06/25 08:43:59;;;;;;;57.90;44.25;;;18.10;93.10;;;;;;5017963;28;20026;-71
2021/06/25 08:46:24;;;;;;;50.78;37.78;;;18.30;93.00;;;;;;5026916;28;20024;-71
2021/06/25 08:48:51;;;;;;;40.50;34.45;;;18.50;93.40;;;;;;5020510;28;20107;-72
2021/06/25 08:51:18;;;;;;;35.42;29.95;;;18.60;93.00;;;;;;5020367;28;20084;-72
2021/06/25 08:53:43;;;;;;;38.22;34.05;;;18.70;92.80;;;;;;5027784;28;20044;-72
2021/06/25 08:56:09;;;;;;;34.25;30.65;;;19.00;93.00;;;;;;5015680;28;20022;-71
2021/06/25 08:58:35;;;;;;;35.85;30.40;;;18.90;91.40;;;;;;5026388;28;20053;-71
2021/06/25 09:01:02;;;;;;;33.13;28.77;;;18.90;90.90;;;;;;5022094;28;20033;-71
2021/06/25 09:03:30;;;;;;;27.67;24.58;;;18.90;90.60;;;;;;5019111;28;20092;-71
2021/06/25 09:06:22;;;;;;;27.83;24.08;;;19.00;89.50;;;;;;5028740;28;20383;-72
2021/06/25 09:08:48;;;;;;;27.88;24.98;;;18.90;89.00;;;;;;5018359;28;20036;-73
2021/06/25 09:11:18;;;;;;;31.48;26.42;;;18.70;88.50;;;;;;5019582;28;20454;-72
2021/06/25 09:13:44;;;;;;;28.73;25.73;;;19.10;90.80;;;;;;5027516;28;20064;-71
2021/06/25 09:16:27;;;;;;;28.75;25.58;;;19.60;91.30;;;;;;5014296;28;20442;-72
2021/06/25 09:19:16;;;;;;;26.02;23.20;;;20.00;91.00;;;;;;5023670;28;20026;-72
2021/06/25 09:21:57;;;;;;;19.98;17.88;;;20.10;87.40;;;;;;5027325;28;20029;-68
2021/06/25 09:24:25;;;;;;;21.85;19.52;;;19.70;84.40;;;;;;5001068;28;20025;-68
2021/06/25 09:27:01;;;;;;;31.52;27.15;;;19.40;85.90;;;;;;5023522;28;20080;-68
2021/06/25 09:29:29;;;;;;;24.42;21.67;;;19.80;90.10;;;;;;5024952;28;20072;-69
2021/06/25 09:32:00;;;;;;;19.65;17.25;;;20.20;90.80;;;;;;5029948;28;20044;-66
2021/06/25 09:34:40;;;;;;;19.95;17.70;;;20.20;83.70;;;;;;5031598;28;20029;-67
2021/06/25 09:37:09;;;;;;;19.00;15.57;;;20.60;85.20;;;;;;5030751;28;20508;-67
2021/06/25 09:39:35;;;;;;;17.02;14.65;;;20.90;82.70;;;;;;5031918;28;20665;-67
2021/06/25 09:42:01;;;;;;;23.13;16.50;;;21.40;81.70;;;;;;5032395;28;20025;-66
2021/06/25 09:44:26;;;;;;;14.90;13.32;;;21.80;82.30;;;;;;5031621;28;20455;-67
2021/06/25 09:46:54;;;;;;;18.38;13.50;;;22.40;80.70;;;;;;5031477;28;20049;-67
2021/06/25 09:49:33;;;;;;;15.77;14.02;;;22.10;74.30;;;;;;5030500;28;20033;-67
2021/06/25 09:52:02;;;;;;;19.15;15.35;;;21.50;76.60;;;;;;5031673;28;20471;-67
2021/06/25 09:54:28;;;;;;;19.67;14.43;;;21.50;78.30;;;;;;5031414;28;20018;-66
2021/06/25 09:57:10;;;;;;;15.05;12.38;;;21.70;76.10;;;;;;5032083;28;20040;-66
2021/06/25 09:59:57;;;;;;;14.32;12.93;;;21.80;74.00;;;;;;5035836;28;20078;-66
2021/06/25 10:02:25;;;;;;;17.17;13.73;;;21.60;72.90;;;;;;5035823;28;20029;-66
2021/06/25 10:04:58;;;;;;;14.63;13.10;;;21.30;73.50;;;;;;5036309;28;20460;-66
2021/06/25 10:07:26;;;;;;;17.02;13.85;;;21.50;74.80;;;;;;5036138;28;20059;-65
2021/06/25 10:09:55;;;;;;;15.02;13.55;;;21.90;72.70;;;;;;5034980;28;20492;-66
2021/06/25 10:12:24;;;;;;;16.38;14.48;;;21.90;73.40;;;;;;5035782;28;20156;-66
2021/06/25 10:14:52;;;;;;;13.65;12.25;;;22.30;75.70;;;;;;5036026;28;20502;-66
2021/06/25 10:17:18;;;;;;;14.77;12.95;;;22.80;70.20;;;;;;5035274;28;20025;-67
2021/06/25 10:19:49;;;;;;;13.88;12.00;;;22.80;72.00;;;;;;5035425;28;20040;-66
2021/06/25 10:22:16;;;;;;;;;;;23.20;69.30;;;;;;5035791;28;20491;-66
2021/06/25 10:24:44;;;;;;;12.55;11.25;;;24.30;72.30;;;;;;5033814;28;19964;-66
2021/06/25 10:27:11;;;;;;;14.38;12.60;;;24.80;62.70;;;;;;5034798;28;20025;-66
2021/06/25 10:29:38;;;;;;;20.38;13.02;;;23.70;62.90;;;;;;5035273;28;20017;-66
2021/06/25 10:32:09;;;;;;;13.43;11.57;;;22.50;65.00;;;;;;5035042;28;20067;-66
2021/06/25 10:34:40;;;;;;;14.57;11.50;;;22.30;69.30;;;;;;5035268;28;20129;-66
2021/06/25 10:37:08;;;;;;;10.82;9.73;;;22.70;67.00;;;;;;5034799;28;20025;-66
2021/06/25 10:39:35;;;;;;;11.13;9.27;;;22.40;66.80;;;;;;5034672;28;20029;-66
2021/06/25 10:42:04;;;;;;;12.07;10.82;;;22.00;68.50;;;;;;5034864;28;20032;-67
2021/06/25 10:44:38;;;;;;;11.35;9.18;;;21.50;69.60;;;;;;5033238;28;20093;-67
2021/06/25 10:47:22;;;;;;;13.77;10.98;;;21.00;70.00;;;;;;5034664;28;20025;-67
2021/06/25 10:49:59;;;;;;;13.23;10.60;;;20.80;74.70;;;;;;5034559;28;20017;-67
2021/06/25 10:53:07;;;;;;;14.05;10.13;;;20.40;75.80;;;;;;5034938;28;20096;-66
2021/06/25 10:55:33;;;;;;;13.88;9.73;;;19.90;80.40;;;;;;5023251;28;20667;-67
2021/06/25 10:57:59;;;;;;;12.05;10.85;;;19.60;82.60;;;;;;5034329;28;20032;-67
2021/06/25 11:00:25;;;;;;;15.90;11.93;;;18.80;85.90;;;;;;5034525;28;20434;-67
2021/06/25 11:02:51;;;;;;;25.48;15.98;;;18.40;88.40;;;;;;5016994;28;20040;-67
2021/06/25 11:05:31;;;;;;;26.95;18.35;;;18.10;90.70;;;;;;5035367;28;20444;-67
2021/06/25 11:08:19;;;;;;;16.95;14.57;;;18.30;92.80;;;;;;5033743;28;20022;-66
2021/06/25 11:10:56;;;;;;;23.15;20.65;;;18.50;92.90;;;;;;5053451;23;20500;-71
2021/06/25 11:13:24;;;;;;;14.25;12.75;;;19.00;93.70;;;;;;5034225;28;20479;-72
2021/06/25 11:15:57;;;;;;;12.90;11.75;;;19.00;92.10;;;;;;5034113;28;20037;-71
2021/06/25 11:18:23;;;;;;;10.82;9.73;;;19.10;91.10;;;;;;5033930;28;20075;-72
2021/06/25 11:20:54;;;;;;;11.52;9.40;;;19.20;89.20;;;;;;5034067;28;20040;-71
2021/06/25 11:23:24;;;;;;;11.02;10.07;;;19.20;86.10;;;;;;5034764;28;20129;-71
2021/06/25 11:25:58;;;;;;;9.27;8.43;;;19.20;86.80;;;;;;5034068;28;20546;-72
2021/06/25 11:28:38;;;;;;;11.02;9.85;;;19.60;83.30;;;;;;5015792;28;20280;-71
2021/06/25 11:31:18;;;;;;;10.88;9.32;;;19.60;85.10;;;;;;5016142;28;20025;-72
2021/06/25 11:33:50;;;;;;;9.65;8.75;;;20.10;82.60;;;;;;5033875;28;20032;-72
2021/06/25 11:36:47;;;;;;;8.27;7.43;;;20.30;81.40;;;;;;5015514;28;20021;-72
2021/06/25 11:39:32;;;;;;;9.02;8.13;;;20.60;79.30;;;;;;5033735;28;20028;-72
2021/06/25 11:42:09;;;;;;;7.57;6.93;;;20.70;79.00;;;;;;5033790;28;20116;-72
2021/06/25 11:44:36;;;;;;;7.13;6.47;;;21.00;75.70;;;;;;5033504;28;20022;-72
2021/06/25 11:47:10;;;;;;;9.10;7.20;;;20.90;76.40;;;;;;5033074;28;20077;-71
2021/06/25 11:52:27;;;;;;;7.25;6.55;;;21.50;72.70;;;;;;5033938;28;20009;-71
2021/06/25 11:54:56;;;;;;;7.10;6.43;;;21.70;74.50;;;;;;5015970;28;20029;-72
2021/06/25 11:57:23;;;;;;;7.65;6.95;;;21.90;72.50;;;;;;5033222;28;20025;-71
2021/06/25 12:00:15;;;;;;;8.68;7.68;;;21.90;72.90;;;;;;5033246;28;20045;-71
2021/06/25 12:02:47;;;;;;;7.15;6.55;;;21.90;70.20;;;;;;5033558;28;20030;-71
2021/06/25 12:05:15;;;;;;;;;;;21.70;70.10;;;;;;5034357;28;20029;-71
2021/06/25 12:07:41;;;;;;;7.43;6.63;;;21.90;69.20;;;;;;5015610;28;20389;-71
2021/06/25 12:10:07;;;;;;;9.23;7.85;;;22.00;71.20;;;;;;5015355;28;20065;-71
2021/06/25 12:12:38;;;;;;;10.98;7.10;;;22.10;70.00;;;;;;5015961;28;20383;-72
2021/06/25 12:15:09;;;;;;;8.68;7.88;;;22.10;70.70;;;;;;5033382;28;20539;-72
2021/06/25 12:17:46;;;;;;;8.27;7.50;;;22.30;69.10;;;;;;5015498;28;20044;-73
2021/06/25 12:20:22;;;;;;;9.13;8.27;;;22.20;66.20;;;;;;4998356;28;20116;-72
2021/06/25 12:22:52;;;;;;;9.60;8.60;;;22.10;69.70;;;;;;5015939;28;20036;-73
2021/06/25 12:25:38;;;;;;;14.13;9.90;;;22.60;70.20;;;;;;5033318;28;20028;-73
2021/06/25 12:28:12;;;;;;;8.02;6.25;;;23.30;69.40;;;;;;5033054;28;20386;-72
2021/06/25 12:30:41;;;;;;;7.00;6.40;;;23.70;66.80;;;;;;5032767;28;20017;-70
2021/06/25 12:33:08;;;;;;;6.68;6.07;;;23.70;63.40;;;;;;5032419;28;20029;-71
2021/06/25 12:35:44;;;;;;;6.57;5.97;;;23.50;61.90;;;;;;5014739;28;20025;-71
2021/06/25 12:38:13;;;;;;;6.93;6.32;;;23.00;63.30;;;;;;5032389;28;20112;-71
2021/06/25 12:40:40;;;;;;;7.80;5.85;;;23.00;66.20;;;;;;5014783;28;20025;-72
2021/06/25 12:43:05;;;;;;;7.32;6.07;;;23.10;63.80;;;;;;5015111;28;20075;-72
2021/06/25 12:45:41;;;;;;;6.88;6.18;;;22.90;65.00;;;;;;5014379;28;20733;-71